Time,TemperatureF,DewpointF,PressureIn,WindDirection,WindDirectionDegrees,WindSpeedMPH,WindSpeedGustMPH,Humidity,HourlyPrecipIn,Conditions,Clouds,dailyrainin,SoftwareType,DateUTC
2013-12-01 00:12:00,26.7,21.0,30.56,SSE,155,0.0,2.0,78,0.00,,,0.12,weatherlink.com 1.10,2013-12-01 05:12:00,
2013-12-01 00:27:00,26.1,20.0,30.56,SSE,161,0.0,1.0,79,0.00,,,0.12,weatherlink.com 1.10,2013-12-01 05:27:00,
2013-12-01 00:42:00,25.8,20.0,30.55,South,169,0.0,2.0,80,0.00,,,0.12,weatherlink.com 1.10,2013-12-01 05:42:00,
2013-12-01 00:57:00,25.9,21.0,30.55,SE,134,0.0,2.0,80,0.00,,,0.12,weatherlink.com 1.10,2013-12-01 05:57:00,
2013-12-01 01:12:00,25.9,21.0,30.55,SE,134,0.0,1.0,80,0.00,,,0.12,weatherlink.com 1.10,2013-12-01 06:12:00,
2013-12-01 01:27:00,25.8,20.0,30.54,SE,134,0.0,2.0,79,0.00,,,0.12,weatherlink.com 1.10,2013-12-01 06:27:00,
2013-12-01 01:42:00,27.2,21.0,30.54,SE,134,0.0,4.0,77,0.00,,,0.12,weatherlink.com 1.10,2013-12-01 06:42:00,
2013-12-01 01:57:00,30.6,22.0,30.54,SSE,147,1.0,3.0,69,0.00,,,0.12,weatherlink.com 1.10,2013-12-01 06:57:00,
2013-12-01 02:12:00,30.3,21.0,30.53,SE,138,2.0,3.0,68,0.00,,,0.12,weatherlink.com 1.10,2013-12-01 07:12:00,
2013-12-01 02:27:00,28.5,21.0,30.54,SE,138,0.0,0.0,72,0.00,,,0.12,weatherlink.com 1.10,2013-12-01 07:27:00,
2013-12-01 02:42:00,28.0,20.0,30.53,SE,138,0.0,2.0,73,0.00,,,0.12,weatherlink.com 1.10,2013-12-01 07:42:00,
2013-12-01 02:57:00,28.3,21.0,30.53,SE,139,0.0,1.0,74,0.00,,,0.12,weatherlink.com 1.10,2013-12-01 07:57:00,
2013-12-01 03:12:00,28.6,21.0,30.52,SE,146,0.0,1.0,73,0.00,,,0.12,weatherlink.com 1.10,2013-12-01 08:12:00,
2013-12-01 03:27:00,29.3,21.0,30.52,SE,146,0.0,2.0,72,0.00,,,0.12,weatherlink.com 1.10,2013-12-01 08:27:00,
2013-12-01 03:42:00,29.4,22.0,30.51,SE,146,0.0,2.0,73,0.00,,,0.12,weatherlink.com 1.10,2013-12-01 08:42:00,
2013-12-01 03:57:00,30.0,22.0,30.51,SE,146,0.0,2.0,71,0.00,,,0.12,weatherlink.com 1.10,2013-12-01 08:57:00,
2013-12-01 04:12:00,30.5,21.0,30.50,SE,146,0.0,2.0,69,0.00,,,0.12,weatherlink.com 1.10,2013-12-01 09:12:00,
2013-12-01 04:27:00,30.1,22.0,30.50,SE,134,0.0,2.0,71,0.00,,,0.12,weatherlink.com 1.10,2013-12-01 09:27:00,
2013-12-01 04:42:00,30.3,22.0,30.50,SE,138,0.0,2.0,70,0.00,,,0.12,weatherlink.com 1.10,2013-12-01 09:42:00,
2013-12-01 04:57:00,30.7,22.0,30.50,SE,138,1.0,1.0,69,0.00,,,0.12,weatherlink.com 1.10,2013-12-01 09:57:00,
2013-12-01 05:12:00,32.9,22.0,30.50,ENE,73,0.0,4.0,65,0.00,,,0.12,weatherlink.com 1.10,2013-12-01 10:12:00,
2013-12-01 05:28:00,32.2,22.0,30.50,SE,134,0.0,2.0,65,0.00,,,0.00,weatherlink.com 1.10,2013-12-01 10:28:00,
2013-12-01 05:43:00,29.8,21.0,30.50,SE,134,0.0,1.0,69,0.00,,,0.00,weatherlink.com 1.10,2013-12-01 10:43:00,
2013-12-01 05:58:00,28.8,21.0,30.50,SE,134,0.0,0.0,72,0.00,,,0.00,weatherlink.com 1.10,2013-12-01 10:58:00,
2013-12-01 06:13:00,29.0,21.0,30.50,SE,132,1.0,4.0,73,0.00,,,0.00,weatherlink.com 1.10,2013-12-01 11:13:00,
2013-12-01 06:28:00,30.7,21.0,30.50,East,98,0.0,2.0,68,0.00,,,0.00,weatherlink.com 1.10,2013-12-01 11:28:00,
2013-12-01 06:43:00,30.1,21.0,30.50,East,98,0.0,0.0,69,0.00,,,0.00,weatherlink.com 1.10,2013-12-01 11:43:00,
2013-12-01 06:58:00,29.4,21.0,30.50,East,99,0.0,0.0,70,0.00,,,0.00,weatherlink.com 1.10,2013-12-01 11:58:00,
2013-12-01 07:13:00,29.0,20.0,30.50,East,99,0.0,1.0,70,0.00,,,0.00,weatherlink.com 1.10,2013-12-01 12:13:00,
2013-12-01 07:28:00,28.6,20.0,30.50,East,98,0.0,1.0,71,0.00,,,0.00,weatherlink.com 1.10,2013-12-01 12:28:00,
2013-12-01 07:43:00,28.3,21.0,30.50,ESE,106,0.0,2.0,73,0.00,,,0.00,weatherlink.com 1.10,2013-12-01 12:43:00,
2013-12-01 07:58:00,28.1,20.0,30.50,ESE,106,0.0,0.0,72,0.00,,,0.00,weatherlink.com 1.10,2013-12-01 12:58:00,
2013-12-01 08:13:00,28.8,21.0,30.49,ESE,109,0.0,0.0,73,0.00,,,0.00,weatherlink.com 1.10,2013-12-01 13:13:00,
2013-12-01 08:28:00,31.3,22.0,30.49,ESE,112,0.0,0.0,68,0.00,,,0.00,weatherlink.com 1.10,2013-12-01 13:28:00,
2013-12-01 08:43:00,32.5,22.0,30.49,ESE,114,1.0,2.0,65,0.00,,,0.00,weatherlink.com 1.10,2013-12-01 13:43:00,
2013-12-01 08:58:00,35.5,22.0,30.49,East,101,1.0,5.0,59,0.00,,,0.00,weatherlink.com 1.10,2013-12-01 13:58:00,
2013-12-01 09:13:00,36.8,22.0,30.49,ESE,115,1.0,2.0,56,0.00,,,0.00,weatherlink.com 1.10,2013-12-01 14:13:00,
2013-12-01 09:28:00,39.2,22.0,30.48,ESE,112,1.0,5.0,51,0.00,,,0.00,weatherlink.com 1.10,2013-12-01 14:28:00,
2013-12-01 09:43:00,41.0,23.0,30.48,NE,40,2.0,9.0,49,0.00,,,0.00,weatherlink.com 1.10,2013-12-01 14:43:00,
2013-12-01 09:58:00,41.5,23.0,30.48,ENE,72,3.0,6.0,49,0.00,,,0.00,weatherlink.com 1.10,2013-12-01 14:58:00,
2013-12-01 10:13:00,42.1,24.0,30.48,East,100,2.0,8.0,48,0.00,,,0.00,weatherlink.com 1.10,2013-12-01 15:13:00,
2013-12-01 10:28:00,42.7,24.0,30.47,SE,136,4.0,7.0,48,0.01,,,0.01,weatherlink.com 1.10,2013-12-01 15:28:00,
2013-12-01 10:43:00,43.1,24.0,30.47,South,172,0.0,9.0,48,0.02,,,0.02,weatherlink.com 1.10,2013-12-01 15:43:00,
2013-12-01 13:32:00,44.9,31.0,30.37,ESE,121,4.0,7.0,59,0.02,,,0.09,weatherlink.com 1.10,2013-12-01 18:32:00,
2013-12-01 13:44:00,45.5,32.0,30.37,South,169,0.0,7.0,59,0.01,,,0.09,weatherlink.com 1.10,2013-12-01 18:44:00,
2013-12-01 13:59:00,46.4,31.0,30.36,West,271,1.0,7.0,56,0.01,,,0.09,weatherlink.com 1.10,2013-12-01 18:59:00,
2013-12-01 14:14:00,45.2,31.0,30.36,SW,225,0.0,7.0,57,0.01,,,0.09,weatherlink.com 1.10,2013-12-01 19:14:00,
2013-12-01 14:29:00,44.5,31.0,30.35,NNW,329,0.0,2.0,60,0.00,,,0.09,weatherlink.com 1.10,2013-12-01 19:29:00,
2013-12-01 14:44:00,43.8,31.0,30.35,West,266,0.0,2.0,60,0.00,,,0.09,weatherlink.com 1.10,2013-12-01 19:44:00,
2013-12-01 14:59:00,43.0,30.0,30.34,North,355,0.0,3.0,61,0.00,,,0.09,weatherlink.com 1.10,2013-12-01 19:59:00,
2013-12-01 15:15:00,42.4,30.0,30.33,WNW,297,0.0,2.0,62,0.00,,,0.09,weatherlink.com 1.10,2013-12-01 20:15:00,
2013-12-01 15:30:00,41.9,31.0,30.34,WNW,298,0.0,4.0,65,0.00,,,0.09,weatherlink.com 1.10,2013-12-01 20:30:00,
2013-12-01 15:45:00,41.5,31.0,30.33,SW,221,0.0,4.0,67,0.00,,,0.09,weatherlink.com 1.10,2013-12-01 20:45:00,
2013-12-01 16:00:00,40.5,31.0,30.33,SW,221,0.0,0.0,69,0.00,,,0.09,weatherlink.com 1.10,2013-12-01 21:00:00,
2013-12-01 16:15:00,39.2,31.0,30.33,SW,221,0.0,0.0,72,0.00,,,0.09,weatherlink.com 1.10,2013-12-01 21:15:00,
2013-12-01 16:30:00,38.6,31.0,30.33,SW,221,0.0,0.0,74,0.00,,,0.09,weatherlink.com 1.10,2013-12-01 21:30:00,
2013-12-01 16:45:00,38.2,31.0,30.32,SW,221,0.0,0.0,75,0.00,,,0.09,weatherlink.com 1.10,2013-12-01 21:45:00,
2013-12-01 17:00:00,37.6,31.0,30.32,SW,221,0.0,0.0,76,0.00,,,0.09,weatherlink.com 1.10,2013-12-01 22:00:00,
2013-12-01 17:15:00,37.2,31.0,30.32,SW,221,0.0,0.0,78,0.00,,,0.09,weatherlink.com 1.10,2013-12-01 22:15:00,
2013-12-01 17:30:00,36.8,31.0,30.31,SW,221,0.0,0.0,79,0.00,,,0.09,weatherlink.com 1.10,2013-12-01 22:30:00,
2013-12-01 17:45:00,36.9,31.0,30.31,SW,221,0.0,0.0,79,0.00,,,0.09,weatherlink.com 1.10,2013-12-01 22:45:00,
2013-12-01 18:00:00,37.3,31.0,30.31,SW,221,0.0,0.0,78,0.00,,,0.09,weatherlink.com 1.10,2013-12-01 23:00:00,
2013-12-01 18:15:00,37.7,31.0,30.31,SSW,209,0.0,2.0,76,0.00,,,0.09,weatherlink.com 1.10,2013-12-01 23:15:00,
2013-12-01 18:30:00,37.7,31.0,30.30,SSE,163,0.0,1.0,76,0.00,,,0.09,weatherlink.com 1.10,2013-12-01 23:30:00,
2013-12-01 18:45:00,37.6,31.0,30.30,SE,138,0.0,3.0,76,0.00,,,0.09,weatherlink.com 1.10,2013-12-01 23:45:00,
2013-12-01 19:00:00,38.5,31.0,30.29,SE,132,2.0,3.0,75,0.00,,,0.09,weatherlink.com 1.10,2013-12-02 00:00:00,
2013-12-01 19:15:00,38.9,32.0,30.29,SSE,149,0.0,4.0,75,0.00,,,0.09,weatherlink.com 1.10,2013-12-02 00:15:00,
2013-12-01 19:30:00,39.6,32.0,30.29,ESE,113,0.0,5.0,74,0.00,,,0.09,weatherlink.com 1.10,2013-12-02 00:30:00,
2013-12-01 19:45:00,38.9,32.0,30.28,ESE,117,0.0,3.0,76,0.00,,,0.09,weatherlink.com 1.10,2013-12-02 00:45:00,
2013-12-01 20:00:00,38.7,32.0,30.28,ESE,110,1.0,3.0,77,0.00,,,0.09,weatherlink.com 1.10,2013-12-02 01:00:00,
2013-12-01 20:15:00,38.3,32.0,30.28,ESE,119,0.0,2.0,78,0.00,,,0.09,weatherlink.com 1.10,2013-12-02 01:15:00,
2013-12-01 20:30:00,38.6,32.0,30.27,East,95,0.0,3.0,77,0.00,,,0.09,weatherlink.com 1.10,2013-12-02 01:30:00,
2013-12-01 20:45:00,38.5,32.0,30.27,ESE,107,0.0,2.0,78,0.00,,,0.09,weatherlink.com 1.10,2013-12-02 01:45:00,
2013-12-01 21:00:00,38.2,32.0,30.27,ESE,107,0.0,0.0,79,0.00,,,0.09,weatherlink.com 1.10,2013-12-02 02:00:00,
2013-12-01 21:15:00,38.7,33.0,30.26,SE,136,0.0,5.0,79,0.00,,,0.09,weatherlink.com 1.10,2013-12-02 02:15:00,
2013-12-01 21:30:00,38.9,33.0,30.26,SE,136,0.0,0.0,78,0.00,,,0.09,weatherlink.com 1.10,2013-12-02 02:30:00,
2013-12-01 21:45:00,38.3,33.0,30.26,SE,136,0.0,0.0,80,0.00,,,0.09,weatherlink.com 1.10,2013-12-02 02:45:00,
2013-12-01 22:00:00,38.3,33.0,30.26,SE,136,0.0,1.0,80,0.00,,,0.09,weatherlink.com 1.10,2013-12-02 03:00:00,
2013-12-01 22:15:00,38.3,33.0,30.25,SE,137,0.0,0.0,80,0.00,,,0.09,weatherlink.com 1.10,2013-12-02 03:15:00,
2013-12-01 22:30:00,38.0,33.0,30.25,SE,136,0.0,0.0,81,0.00,,,0.09,weatherlink.com 1.10,2013-12-02 03:30:00,
2013-12-01 22:45:00,37.8,33.0,30.24,SE,137,0.0,0.0,82,0.00,,,0.09,weatherlink.com 1.10,2013-12-02 03:45:00,
2013-12-01 23:00:00,37.7,33.0,30.24,SE,136,0.0,0.0,82,0.00,,,0.09,weatherlink.com 1.10,2013-12-02 04:00:00,
2013-12-01 23:15:00,38.0,33.0,30.24,SE,140,0.0,1.0,82,0.00,,,0.09,weatherlink.com 1.10,2013-12-02 04:15:00,
2013-12-01 23:30:00,38.0,33.0,30.23,SE,140,0.0,0.0,82,0.00,,,0.09,weatherlink.com 1.10,2013-12-02 04:30:00,
2013-12-01 23:45:00,37.8,33.0,30.23,SE,140,0.0,2.0,82,0.00,,,0.09,weatherlink.com 1.10,2013-12-02 04:45:00,